sensor_id;sensor_type;location;lat;lon;timestamp;P1;durP1;ratioP1;P2;durP2;ratioP2
23169;SDS011;11753;43.144;24.714;2023-02-15T00:00:07;32.33;;;21.63;;
23169;SDS011;11753;43.144;24.714;2023-02-15T00:01:13;29.67;;;20.65;;
23169;SDS011;11753;43.144;24.714;2023-02-15T00:02:14;29.17;;;19.42;;
23169;SDS011;11753;43.144;24.714;2023-02-15T00:03:16;32.15;;;20.77;;
23169;SDS011;11753;43.144;24.714;2023-02-15T00:04:19;31.55;;;20.70;;
23169;SDS011;11753;43.144;24.714;2023-02-15T00:05:23;31.83;;;19.75;;
23169;SDS011;11753;43.144;24.714;2023-02-15T00:06:24;33.10;;;22.05;;
23169;SDS011;11753;43.144;24.714;2023-02-15T00:07:25;31.35;;;20.42;;
23169;SDS011;11753;43.144;24.714;2023-02-15T00:08:26;30.63;;;19.98;;
23169;SDS011;11753;43.144;24.714;2023-02-15T00:09:26;30.25;;;19.70;;
23169;SDS011;11753;43.144;24.714;2023-02-15T00:10:27;29.77;;;20.77;;
23169;SDS011;11753;43.144;24.714;2023-02-15T00:11:27;32.47;;;21.65;;
23169;SDS011;11753;43.144;24.714;2023-02-15T00:12:41;32.55;;;21.27;;
23169;SDS011;11753;43.144;24.714;2023-02-15T00:13:41;35.38;;;21.25;;
23169;SDS011;11753;43.144;24.714;2023-02-15T00:14:42;29.70;;;20.27;;
23169;SDS011;11753;43.144;24.714;2023-02-15T00:15:43;31.52;;;19.80;;
23169;SDS011;11753;43.144;24.714;2023-02-15T00:16:44;30.17;;;20.25;;
23169;SDS011;11753;43.144;24.714;2023-02-15T00:17:45;29.00;;;19.73;;
23169;SDS011;11753;43.144;24.714;2023-02-15T00:18:45;30.45;;;20.25;;
23169;SDS011;11753;43.144;24.714;2023-02-15T00:19:46;31.75;;;20.25;;
23169;SDS011;11753;43.144;24.714;2023-02-15T00:20:47;31.15;;;20.20;;
23169;SDS011;11753;43.144;24.714;2023-02-15T00:21:48;29.55;;;19.98;;
23169;SDS011;11753;43.144;24.714;2023-02-15T00:22:48;29.20;;;19.58;;
23169;SDS011;11753;43.144;24.714;2023-02-15T00:23:49;29.00;;;19.80;;
23169;SDS011;11753;43.144;24.714;2023-02-15T00:24:50;31.25;;;20.38;;
23169;SDS011;11753;43.144;24.714;2023-02-15T00:25:51;32.45;;;20.70;;
23169;SDS011;11753;43.144;24.714;2023-02-15T00:26:52;33.25;;;21.95;;
23169;SDS011;11753;43.144;24.714;2023-02-15T00:27:53;33.67;;;20.90;;
23169;SDS011;11753;43.144;24.714;2023-02-15T00:28:55;31.65;;;21.17;;
23169;SDS011;11753;43.144;24.714;2023-02-15T00:29:58;30.10;;;20.75;;
23169;SDS011;11753;43.144;24.714;2023-02-15T00:31:06;30.70;;;20.77;;
23169;SDS011;11753;43.144;24.714;2023-02-15T00:32:11;30.67;;;20.80;;
23169;SDS011;11753;43.144;24.714;2023-02-15T00:33:11;31.45;;;20.50;;
23169;SDS011;11753;43.144;24.714;2023-02-15T00:35:17;33.65;;;21.65;;
23169;SDS011;11753;43.144;24.714;2023-02-15T00:36:18;31.00;;;19.90;;
23169;SDS011;11753;43.144;24.714;2023-02-15T00:37:19;30.00;;;20.00;;
23169;SDS011;11753;43.144;24.714;2023-02-15T00:38:20;30.05;;;20.40;;
23169;SDS011;11753;43.144;24.714;2023-02-15T00:39:21;33.40;;;21.48;;
23169;SDS011;11753;43.144;24.714;2023-02-15T00:40:24;31.38;;;20.02;;
23169;SDS011;11753;43.144;24.714;2023-02-15T00:41:25;32.60;;;21.48;;
23169;SDS011;11753;43.144;24.714;2023-02-15T00:42:26;31.83;;;21.13;;
23169;SDS011;11753;43.144;24.714;2023-02-15T00:43:28;36.60;;;22.02;;
23169;SDS011;11753;43.144;24.714;2023-02-15T00:44:30;31.60;;;21.15;;
23169;SDS011;11753;43.144;24.714;2023-02-15T00:45:31;32.75;;;21.38;;
23169;SDS011;11753;43.144;24.714;2023-02-15T00:46:32;30.85;;;20.42;;
23169;SDS011;11753;43.144;24.714;2023-02-15T00:47:33;31.55;;;19.85;;
23169;SDS011;11753;43.144;24.714;2023-02-15T00:48:34;32.50;;;20.63;;
23169;SDS011;11753;43.144;24.714;2023-02-15T00:49:35;33.63;;;21.13;;
23169;SDS011;11753;43.144;24.714;2023-02-15T00:50:36;30.23;;;20.20;;
23169;SDS011;11753;43.144;24.714;2023-02-15T00:51:37;31.83;;;21.50;;
23169;SDS011;11753;43.144;24.714;2023-02-15T00:52:39;31.85;;;20.65;;
23169;SDS011;11753;43.144;24.714;2023-02-15T00:53:40;32.78;;;20.20;;
23169;SDS011;11753;43.144;24.714;2023-02-15T00:54:41;29.42;;;19.52;;
23169;SDS011;11753;43.144;24.714;2023-02-15T00:55:42;34.53;;;21.35;;
23169;SDS011;11753;43.144;24.714;2023-02-15T00:56:43;32.70;;;21.73;;
23169;SDS011;11753;43.144;24.714;2023-02-15T00:57:44;29.23;;;20.10;;
23169;SDS011;11753;43.144;24.714;2023-02-15T00:58:45;31.63;;;20.98;;
23169;SDS011;11753;43.144;24.714;2023-02-15T00:59:46;31.63;;;20.48;;
23169;SDS011;11753;43.144;24.714;2023-02-15T01:00:48;34.25;;;22.05;;
23169;SDS011;11753;43.144;24.714;2023-02-15T01:01:49;33.67;;;21.40;;
23169;SDS011;11753;43.144;24.714;2023-02-15T01:02:49;32.03;;;21.67;;
23169;SDS011;11753;43.144;24.714;2023-02-15T01:03:51;33.35;;;20.73;;
23169;SDS011;11753;43.144;24.714;2023-02-15T01:04:53;31.63;;;19.85;;
23169;SDS011;11753;43.144;24.714;2023-02-15T01:05:54;29.05;;;19.15;;
23169;SDS011;11753;43.144;24.714;2023-02-15T01:06:57;31.88;;;20.70;;
23169;SDS011;11753;43.144;24.714;2023-02-15T01:07:58;32.00;;;21.10;;
23169;SDS011;11753;43.144;24.714;2023-02-15T01:08:59;31.58;;;19.95;;
23169;SDS011;11753;43.144;24.714;2023-02-15T01:10:00;31.45;;;20.00;;
23169;SDS011;11753;43.144;24.714;2023-02-15T01:11:08;31.02;;;20.45;;
23169;SDS011;11753;43.144;24.714;2023-02-15T01:12:11;31.42;;;19.60;;
23169;SDS011;11753;43.144;24.714;2023-02-15T01:13:12;30.40;;;19.27;;
23169;SDS011;11753;43.144;24.714;2023-02-15T01:14:14;28.90;;;19.73;;
23169;SDS011;11753;43.144;24.714;2023-02-15T01:15:15;31.58;;;21.38;;
23169;SDS011;11753;43.144;24.714;2023-02-15T01:16:16;33.05;;;21.13;;
23169;SDS011;11753;43.144;24.714;2023-02-15T01:17:18;29.67;;;19.30;;
23169;SDS011;11753;43.144;24.714;2023-02-15T01:18:19;32.65;;;20.73;;
23169;SDS011;11753;43.144;24.714;2023-02-15T01:19:20;31.85;;;20.38;;
23169;SDS011;11753;43.144;24.714;2023-02-15T01:20:22;32.20;;;20.45;;
23169;SDS011;11753;43.144;24.714;2023-02-15T01:21:26;31.27;;;20.98;;
23169;SDS011;11753;43.144;24.714;2023-02-15T01:22:27;29.40;;;18.73;;
23169;SDS011;11753;43.144;24.714;2023-02-15T01:23:28;32.55;;;20.55;;
23169;SDS011;11753;43.144;24.714;2023-02-15T01:24:28;31.30;;;20.67;;
23169;SDS011;11753;43.144;24.714;2023-02-15T01:25:29;30.67;;;20.67;;
23169;SDS011;11753;43.144;24.714;2023-02-15T01:26:30;35.35;;;21.58;;
23169;SDS011;11753;43.144;24.714;2023-02-15T01:27:31;31.38;;;20.88;;
23169;SDS011;11753;43.144;24.714;2023-02-15T01:28:32;31.17;;;21.35;;
23169;SDS011;11753;43.144;24.714;2023-02-15T01:29:33;31.15;;;20.17;;
23169;SDS011;11753;43.144;24.714;2023-02-15T01:30:34;30.77;;;20.30;;
23169;SDS011;11753;43.144;24.714;2023-02-15T01:31:35;30.67;;;20.13;;
23169;SDS011;11753;43.144;24.714;2023-02-15T01:32:36;30.38;;;20.23;;
23169;SDS011;11753;43.144;24.714;2023-02-15T01:33:37;32.60;;;20.80;;
23169;SDS011;11753;43.144;24.714;2023-02-15T01:34:38;32.92;;;20.52;;
23169;SDS011;11753;43.144;24.714;2023-02-15T01:35:38;34.13;;;22.40;;
23169;SDS011;11753;43.144;24.714;2023-02-15T01:36:39;34.47;;;22.40;;
23169;SDS011;11753;43.144;24.714;2023-02-15T01:37:39;32.45;;;21.05;;
23169;SDS011;11753;43.144;24.714;2023-02-15T01:38:40;30.33;;;20.33;;
23169;SDS011;11753;43.144;24.714;2023-02-15T01:39:42;32.38;;;20.38;;
23169;SDS011;11753;43.144;24.714;2023-02-15T01:40:43;31.50;;;21.77;;
23169;SDS011;11753;43.144;24.714;2023-02-15T01:41:44;30.48;;;20.73;;
23169;SDS011;11753;43.144;24.714;2023-02-15T01:42:45;32.92;;;21.15;;
23169;SDS011;11753;43.144;24.714;2023-02-15T01:43:47;32.10;;;21.25;;
23169;SDS011;11753;43.144;24.714;2023-02-15T01:44:51;31.05;;;21.23;;
23169;SDS011;11753;43.144;24.714;2023-02-15T01:45:52;31.95;;;20.95;;
23169;SDS011;11753;43.144;24.714;2023-02-15T01:46:53;33.38;;;21.17;;
23169;SDS011;11753;43.144;24.714;2023-02-15T01:49:06;26.58;;;16.63;;
23169;SDS011;11753;43.144;24.714;2023-02-15T01:51:21;37.05;;;22.45;;
23169;SDS011;11753;43.144;24.714;2023-02-15T01:52:26;31.83;;;20.65;;
23169;SDS011;11753;43.144;24.714;2023-02-15T01:53:34;35.15;;;22.70;;
23169;SDS011;11753;43.144;24.714;2023-02-15T01:54:40;34.45;;;21.20;;
23169;SDS011;11753;43.144;24.714;2023-02-15T01:56:02;35.22;;;22.05;;
23169;SDS011;11753;43.144;24.714;2023-02-15T01:57:24;34.95;;;21.58;;
23169;SDS011;11753;43.144;24.714;2023-02-15T01:58:27;36.63;;;23.08;;
23169;SDS011;11753;43.144;24.714;2023-02-15T01:59:29;32.42;;;20.60;;
23169;SDS011;11753;43.144;24.714;2023-02-15T02:00:33;32.22;;;21.45;;
23169;SDS011;11753;43.144;24.714;2023-02-15T02:01:34;32.63;;;21.45;;
23169;SDS011;11753;43.144;24.714;2023-02-15T02:02:35;33.28;;;21.63;;
23169;SDS011;11753;43.144;24.714;2023-02-15T02:04:47;33.75;;;22.15;;
23169;SDS011;11753;43.144;24.714;2023-02-15T02:05:49;34.85;;;22.23;;
23169;SDS011;11753;43.144;24.714;2023-02-15T02:06:50;32.05;;;22.17;;
23169;SDS011;11753;43.144;24.714;2023-02-15T02:07:53;34.03;;;21.15;;
23169;SDS011;11753;43.144;24.714;2023-02-15T02:08:57;36.15;;;22.38;;
23169;SDS011;11753;43.144;24.714;2023-02-15T02:09:58;33.17;;;21.92;;
23169;SDS011;11753;43.144;24.714;2023-02-15T02:10:59;34.42;;;23.08;;
23169;SDS011;11753;43.144;24.714;2023-02-15T02:12:00;37.50;;;23.27;;
23169;SDS011;11753;43.144;24.714;2023-02-15T02:13:04;31.95;;;20.73;;
23169;SDS011;11753;43.144;24.714;2023-02-15T02:14:07;31.33;;;20.30;;
23169;SDS011;11753;43.144;24.714;2023-02-15T02:15:08;33.25;;;21.10;;
23169;SDS011;11753;43.144;24.714;2023-02-15T02:17:59;31.77;;;19.50;;
23169;SDS011;11753;43.144;24.714;2023-02-15T02:22:03;34.55;;;22.83;;
23169;SDS011;11753;43.144;24.714;2023-02-15T02:27:15;34.60;;;21.63;;
23169;SDS011;11753;43.144;24.714;2023-02-15T02:31:35;31.58;;;19.80;;
23169;SDS011;11753;43.144;24.714;2023-02-15T02:34:22;36.70;;;20.80;;
23169;SDS011;11753;43.144;24.714;2023-02-15T02:37:00;35.33;;;22.10;;
23169;SDS011;11753;43.144;24.714;2023-02-15T02:40:09;32.05;;;20.85;;
23169;SDS011;11753;43.144;24.714;2023-02-15T02:41:31;31.90;;;20.77;;
23169;SDS011;11753;43.144;24.714;2023-02-15T02:42:43;32.78;;;21.50;;
23169;SDS011;11753;43.144;24.714;2023-02-15T02:44:04;35.10;;;22.52;;
23169;SDS011;11753;43.144;24.714;2023-02-15T02:45:21;33.10;;;21.27;;
23169;SDS011;11753;43.144;24.714;2023-02-15T02:47:48;34.38;;;22.27;;
23169;SDS011;11753;43.144;24.714;2023-02-15T02:48:54;39.85;;;23.63;;
23169;SDS011;11753;43.144;24.714;2023-02-15T02:50:00;40.10;;;24.02;;
23169;SDS011;11753;43.144;24.714;2023-02-15T02:51:03;38.53;;;24.25;;
23169;SDS011;11753;43.144;24.714;2023-02-15T02:52:06;38.03;;;23.00;;
23169;SDS011;11753;43.144;24.714;2023-02-15T02:53:26;35.70;;;22.23;;
23169;SDS011;11753;43.144;24.714;2023-02-15T02:54:30;32.45;;;20.77;;
23169;SDS011;11753;43.144;24.714;2023-02-15T02:55:34;35.78;;;21.52;;
23169;SDS011;11753;43.144;24.714;2023-02-15T02:56:38;34.83;;;21.65;;
23169;SDS011;11753;43.144;24.714;2023-02-15T02:57:46;37.35;;;21.20;;
23169;SDS011;11753;43.144;24.714;2023-02-15T02:59:46;33.63;;;20.38;;
23169;SDS011;11753;43.144;24.714;2023-02-15T03:00:33;37.03;;;22.27;;
23169;SDS011;11753;43.144;24.714;2023-02-15T03:01:39;31.92;;;21.25;;
23169;SDS011;11753;43.144;24.714;2023-02-15T03:03:09;32.33;;;21.35;;
23169;SDS011;11753;43.144;24.714;2023-02-15T03:04:23;36.40;;;23.23;;
23169;SDS011;11753;43.144;24.714;2023-02-15T03:05:29;33.45;;;21.85;;
23169;SDS011;11753;43.144;24.714;2023-02-15T03:07:35;35.08;;;23.30;;
23169;SDS011;11753;43.144;24.714;2023-02-15T03:08:38;33.33;;;20.25;;
23169;SDS011;11753;43.144;24.714;2023-02-15T03:09:44;31.35;;;20.10;;
23169;SDS011;11753;43.144;24.714;2023-02-15T03:10:50;35.22;;;22.98;;
23169;SDS011;11753;43.144;24.714;2023-02-15T03:11:53;32.67;;;21.10;;
23169;SDS011;11753;43.144;24.714;2023-02-15T03:12:54;37.53;;;22.92;;
23169;SDS011;11753;43.144;24.714;2023-02-15T03:13:55;35.33;;;22.38;;
23169;SDS011;11753;43.144;24.714;2023-02-15T03:15:04;35.35;;;22.30;;
23169;SDS011;11753;43.144;24.714;2023-02-15T03:16:09;36.42;;;22.23;;
23169;SDS011;11753;43.144;24.714;2023-02-15T03:17:29;31.63;;;22.05;;
23169;SDS011;11753;43.144;24.714;2023-02-15T03:18:53;35.17;;;22.27;;
23169;SDS011;11753;43.144;24.714;2023-02-15T03:20:00;35.33;;;21.83;;
23169;SDS011;11753;43.144;24.714;2023-02-15T03:21:07;34.22;;;21.38;;
23169;SDS011;11753;43.144;24.714;2023-02-15T03:22:19;49.83;;;35.00;;
23169;SDS011;11753;43.144;24.714;2023-02-15T03:23:24;36.80;;;23.55;;
23169;SDS011;11753;43.144;24.714;2023-02-15T03:24:31;36.63;;;23.23;;
23169;SDS011;11753;43.144;24.714;2023-02-15T03:25:42;35.38;;;22.13;;
23169;SDS011;11753;43.144;24.714;2023-02-15T03:26:48;36.95;;;23.77;;
23169;SDS011;11753;43.144;24.714;2023-02-15T03:27:53;38.10;;;24.40;;
23169;SDS011;11753;43.144;24.714;2023-02-15T03:28:59;36.33;;;23.75;;
23169;SDS011;11753;43.144;24.714;2023-02-15T03:30:04;47.10;;;27.80;;
23169;SDS011;11753;43.144;24.714;2023-02-15T03:31:07;38.40;;;24.85;;
23169;SDS011;11753;43.144;24.714;2023-02-15T03:32:10;41.05;;;25.95;;
23169;SDS011;11753;43.144;24.714;2023-02-15T03:33:15;132.07;;;66.22;;
23169;SDS011;11753;43.144;24.714;2023-02-15T03:34:16;170.40;;;80.88;;
23169;SDS011;11753;43.144;24.714;2023-02-15T03:35:20;110.32;;;56.05;;
23169;SDS011;11753;43.144;24.714;2023-02-15T03:36:58;74.15;;;41.13;;
23169;SDS011;11753;43.144;24.714;2023-02-15T03:37:58;67.63;;;37.45;;
23169;SDS011;11753;43.144;24.714;2023-02-15T03:41:32;50.28;;;28.63;;
23169;SDS011;11753;43.144;24.714;2023-02-15T03:42:39;43.63;;;26.65;;
23169;SDS011;11753;43.144;24.714;2023-02-15T03:43:49;40.08;;;24.17;;
23169;SDS011;11753;43.144;24.714;2023-02-15T03:44:58;37.83;;;24.48;;
23169;SDS011;11753;43.144;24.714;2023-02-15T03:46:11;42.88;;;27.23;;
23169;SDS011;11753;43.144;24.714;2023-02-15T03:47:20;39.70;;;25.60;;
23169;SDS011;11753;43.144;24.714;2023-02-15T03:48:31;39.58;;;25.90;;
23169;SDS011;11753;43.144;24.714;2023-02-15T03:50:02;43.72;;;27.33;;
23169;SDS011;11753;43.144;24.714;2023-02-15T03:51:29;36.72;;;24.40;;
23169;SDS011;11753;43.144;24.714;2023-02-15T03:52:36;38.30;;;24.60;;
23169;SDS011;11753;43.144;24.714;2023-02-15T03:53:38;41.53;;;24.90;;
23169;SDS011;11753;43.144;24.714;2023-02-15T03:54:40;37.72;;;23.60;;
23169;SDS011;11753;43.144;24.714;2023-02-15T03:55:48;39.53;;;23.30;;
23169;SDS011;11753;43.144;24.714;2023-02-15T03:56:54;40.38;;;23.67;;
23169;SDS011;11753;43.144;24.714;2023-02-15T03:59:34;39.60;;;23.42;;
23169;SDS011;11753;43.144;24.714;2023-02-15T04:00:58;33.40;;;21.95;;
23169;SDS011;11753;43.144;24.714;2023-02-15T04:02:23;34.35;;;21.38;;
23169;SDS011;11753;43.144;24.714;2023-02-15T04:04:45;35.40;;;23.08;;
23169;SDS011;11753;43.144;24.714;2023-02-15T04:05:47;33.28;;;21.40;;
23169;SDS011;11753;43.144;24.714;2023-02-15T04:06:47;30.17;;;20.45;;
23169;SDS011;11753;43.144;24.714;2023-02-15T04:07:48;36.17;;;20.85;;
23169;SDS011;11753;43.144;24.714;2023-02-15T04:08:49;33.65;;;20.83;;
23169;SDS011;11753;43.144;24.714;2023-02-15T04:10:08;32.35;;;21.25;;
23169;SDS011;11753;43.144;24.714;2023-02-15T04:11:27;36.10;;;22.92;;
23169;SDS011;11753;43.144;24.714;2023-02-15T04:12:28;33.70;;;21.33;;
23169;SDS011;11753;43.144;24.714;2023-02-15T04:13:30;30.90;;;20.65;;
23169;SDS011;11753;43.144;24.714;2023-02-15T04:14:32;34.78;;;21.77;;
23169;SDS011;11753;43.144;24.714;2023-02-15T04:15:53;31.95;;;20.80;;
23169;SDS011;11753;43.144;24.714;2023-02-15T04:17:07;31.83;;;19.90;;
23169;SDS011;11753;43.144;24.714;2023-02-15T04:18:09;32.75;;;21.20;;
23169;SDS011;11753;43.144;24.714;2023-02-15T04:19:10;28.88;;;19.88;;
23169;SDS011;11753;43.144;24.714;2023-02-15T04:20:29;31.40;;;20.50;;
23169;SDS011;11753;43.144;24.714;2023-02-15T04:21:48;30.27;;;19.92;;
23169;SDS011;11753;43.144;24.714;2023-02-15T04:23:08;29.42;;;19.58;;
23169;SDS011;11753;43.144;24.714;2023-02-15T04:24:27;33.28;;;20.98;;
23169;SDS011;11753;43.144;24.714;2023-02-15T04:25:46;33.28;;;20.48;;
23169;SDS011;11753;43.144;24.714;2023-02-15T04:26:47;30.83;;;20.40;;
23169;SDS011;11753;43.144;24.714;2023-02-15T04:27:50;32.42;;;20.55;;
23169;SDS011;11753;43.144;24.714;2023-02-15T04:28:53;31.98;;;20.65;;
23169;SDS011;11753;43.144;24.714;2023-02-15T04:29:57;30.75;;;19.63;;
23169;SDS011;11753;43.144;24.714;2023-02-15T04:30:58;29.60;;;19.75;;
23169;SDS011;11753;43.144;24.714;2023-02-15T04:31:59;30.58;;;19.02;;
23169;SDS011;11753;43.144;24.714;2023-02-15T04:33:01;31.25;;;20.20;;
23169;SDS011;11753;43.144;24.714;2023-02-15T04:34:02;29.67;;;19.08;;
23169;SDS011;11753;43.144;24.714;2023-02-15T04:35:03;31.40;;;20.27;;
23169;SDS011;11753;43.144;24.714;2023-02-15T04:36:05;29.90;;;19.50;;
23169;SDS011;11753;43.144;24.714;2023-02-15T04:37:06;29.75;;;19.30;;
23169;SDS011;11753;43.144;24.714;2023-02-15T04:38:07;29.38;;;18.95;;
23169;SDS011;11753;43.144;24.714;2023-02-15T04:39:07;28.30;;;19.42;;
23169;SDS011;11753;43.144;24.714;2023-02-15T04:40:10;28.50;;;18.98;;
23169;SDS011;11753;43.144;24.714;2023-02-15T04:41:13;28.83;;;18.30;;
23169;SDS011;11753;43.144;24.714;2023-02-15T04:42:14;30.10;;;20.08;;
23169;SDS011;11753;43.144;24.714;2023-02-15T04:43:14;28.17;;;18.48;;
23169;SDS011;11753;43.144;24.714;2023-02-15T04:44:15;32.75;;;20.02;;
23169;SDS011;11753;43.144;24.714;2023-02-15T04:45:17;28.88;;;19.60;;
23169;SDS011;11753;43.144;24.714;2023-02-15T04:46:18;33.28;;;20.23;;
23169;SDS011;11753;43.144;24.714;2023-02-15T04:47:19;32.05;;;21.20;;
23169;SDS011;11753;43.144;24.714;2023-02-15T04:48:20;33.70;;;20.85;;
23169;SDS011;11753;43.144;24.714;2023-02-15T04:49:21;29.13;;;19.52;;
23169;SDS011;11753;43.144;24.714;2023-02-15T04:50:22;31.88;;;20.15;;
23169;SDS011;11753;43.144;24.714;2023-02-15T04:51:23;34.05;;;21.08;;
23169;SDS011;11753;43.144;24.714;2023-02-15T04:52:25;30.55;;;19.85;;
23169;SDS011;11753;43.144;24.714;2023-02-15T04:53:26;31.38;;;20.77;;
23169;SDS011;11753;43.144;24.714;2023-02-15T04:54:26;34.58;;;22.30;;
23169;SDS011;11753;43.144;24.714;2023-02-15T04:55:27;32.42;;;21.08;;
23169;SDS011;11753;43.144;24.714;2023-02-15T04:56:28;38.45;;;23.02;;
23169;SDS011;11753;43.144;24.714;2023-02-15T04:57:30;37.33;;;22.73;;
23169;SDS011;11753;43.144;24.714;2023-02-15T04:58:31;42.30;;;25.70;;
23169;SDS011;11753;43.144;24.714;2023-02-15T04:59:32;41.47;;;25.98;;
23169;SDS011;11753;43.144;24.714;2023-02-15T05:00:33;33.53;;;21.50;;
23169;SDS011;11753;43.144;24.714;2023-02-15T05:01:34;33.55;;;21.73;;
23169;SDS011;11753;43.144;24.714;2023-02-15T05:02:35;31.30;;;20.08;;
23169;SDS011;11753;43.144;24.714;2023-02-15T05:03:36;30.95;;;19.63;;
23169;SDS011;11753;43.144;24.714;2023-02-15T05:04:37;33.30;;;21.23;;
23169;SDS011;11753;43.144;24.714;2023-02-15T05:05:38;32.97;;;21.10;;
23169;SDS011;11753;43.144;24.714;2023-02-15T05:06:39;37.42;;;22.58;;
23169;SDS011;11753;43.144;24.714;2023-02-15T05:07:40;33.30;;;21.63;;
23169;SDS011;11753;43.144;24.714;2023-02-15T05:08:41;34.17;;;22.50;;
23169;SDS011;11753;43.144;24.714;2023-02-15T05:09:41;33.60;;;21.58;;
23169;SDS011;11753;43.144;24.714;2023-02-15T05:10:42;34.25;;;22.25;;
23169;SDS011;11753;43.144;24.714;2023-02-15T05:11:43;38.88;;;25.10;;
23169;SDS011;11753;43.144;24.714;2023-02-15T05:12:44;34.28;;;24.38;;
23169;SDS011;11753;43.144;24.714;2023-02-15T05:13:44;37.35;;;24.45;;
23169;SDS011;11753;43.144;24.714;2023-02-15T05:14:45;41.15;;;24.67;;
23169;SDS011;11753;43.144;24.714;2023-02-15T05:15:46;37.72;;;23.67;;
23169;SDS011;11753;43.144;24.714;2023-02-15T05:16:49;35.63;;;22.85;;
23169;SDS011;11753;43.144;24.714;2023-02-15T05:17:50;34.97;;;22.63;;
23169;SDS011;11753;43.144;24.714;2023-02-15T05:18:51;35.38;;;22.45;;
23169;SDS011;11753;43.144;24.714;2023-02-15T05:19:52;45.08;;;26.73;;
23169;SDS011;11753;43.144;24.714;2023-02-15T05:20:53;39.90;;;24.90;;
23169;SDS011;11753;43.144;24.714;2023-02-15T05:21:54;41.40;;;24.75;;
23169;SDS011;11753;43.144;24.714;2023-02-15T05:22:55;45.38;;;26.50;;
23169;SDS011;11753;43.144;24.714;2023-02-15T05:23:56;51.40;;;28.67;;
23169;SDS011;11753;43.144;24.714;2023-02-15T05:24:56;44.08;;;26.58;;
23169;SDS011;11753;43.144;24.714;2023-02-15T05:26:17;41.80;;;24.92;;
23169;SDS011;11753;43.144;24.714;2023-02-15T05:27:40;39.47;;;23.73;;
23169;SDS011;11753;43.144;24.714;2023-02-15T05:28:59;37.00;;;23.02;;
23169;SDS011;11753;43.144;24.714;2023-02-15T05:30:01;36.90;;;22.08;;
23169;SDS011;11753;43.144;24.714;2023-02-15T05:31:07;35.95;;;22.95;;
23169;SDS011;11753;43.144;24.714;2023-02-15T05:32:12;32.40;;;20.63;;
23169;SDS011;11753;43.144;24.714;2023-02-15T05:33:13;31.52;;;20.35;;
23169;SDS011;11753;43.144;24.714;2023-02-15T05:34:14;32.47;;;20.83;;
23169;SDS011;11753;43.144;24.714;2023-02-15T05:35:15;34.58;;;21.73;;
23169;SDS011;11753;43.144;24.714;2023-02-15T05:36:16;34.13;;;21.65;;
23169;SDS011;11753;43.144;24.714;2023-02-15T05:37:18;33.95;;;21.35;;
23169;SDS011;11753;43.144;24.714;2023-02-15T05:38:19;42.08;;;27.02;;
23169;SDS011;11753;43.144;24.714;2023-02-15T05:39:20;44.85;;;27.83;;
23169;SDS011;11753;43.144;24.714;2023-02-15T05:40:21;41.85;;;25.92;;
23169;SDS011;11753;43.144;24.714;2023-02-15T05:41:23;90.05;;;50.53;;
23169;SDS011;11753;43.144;24.714;2023-02-15T05:42:24;88.68;;;51.50;;
23169;SDS011;11753;43.144;24.714;2023-02-15T05:43:25;52.63;;;33.63;;
23169;SDS011;11753;43.144;24.714;2023-02-15T05:44:26;41.13;;;25.00;;
23169;SDS011;11753;43.144;24.714;2023-02-15T05:45:27;38.22;;;24.27;;
23169;SDS011;11753;43.144;24.714;2023-02-15T05:46:28;39.53;;;25.02;;
23169;SDS011;11753;43.144;24.714;2023-02-15T05:47:29;36.30;;;23.38;;
23169;SDS011;11753;43.144;24.714;2023-02-15T05:48:31;38.35;;;23.60;;
23169;SDS011;11753;43.144;24.714;2023-02-15T05:49:32;35.53;;;22.35;;
23169;SDS011;11753;43.144;24.714;2023-02-15T05:50:33;44.20;;;25.67;;
23169;SDS011;11753;43.144;24.714;2023-02-15T05:51:34;63.35;;;33.08;;
23169;SDS011;11753;43.144;24.714;2023-02-15T05:52:35;59.92;;;35.97;;
23169;SDS011;11753;43.144;24.714;2023-02-15T05:53:37;117.80;;;62.83;;
23169;SDS011;11753;43.144;24.714;2023-02-15T05:54:39;57.08;;;33.97;;
23169;SDS011;11753;43.144;24.714;2023-02-15T05:55:40;55.35;;;32.88;;
23169;SDS011;11753;43.144;24.714;2023-02-15T05:56:41;63.97;;;36.20;;
23169;SDS011;11753;43.144;24.714;2023-02-15T05:57:42;53.55;;;31.02;;
23169;SDS011;11753;43.144;24.714;2023-02-15T05:58:43;43.40;;;26.65;;
23169;SDS011;11753;43.144;24.714;2023-02-15T05:59:44;36.55;;;23.25;;
23169;SDS011;11753;43.144;24.714;2023-02-15T06:00:49;36.13;;;22.33;;
23169;SDS011;11753;43.144;24.714;2023-02-15T06:01:50;39.47;;;26.65;;
23169;SDS011;11753;43.144;24.714;2023-02-15T06:02:51;35.90;;;23.08;;
23169;SDS011;11753;43.144;24.714;2023-02-15T06:03:52;38.60;;;25.58;;
23169;SDS011;11753;43.144;24.714;2023-02-15T06:04:53;47.88;;;30.33;;
23169;SDS011;11753;43.144;24.714;2023-02-15T06:05:54;43.83;;;29.83;;
23169;SDS011;11753;43.144;24.714;2023-02-15T06:06:55;42.10;;;26.50;;
23169;SDS011;11753;43.144;24.714;2023-02-15T06:07:56;37.75;;;26.35;;
23169;SDS011;11753;43.144;24.714;2023-02-15T06:08:57;50.55;;;32.55;;
23169;SDS011;11753;43.144;24.714;2023-02-15T06:09:58;48.42;;;32.00;;
23169;SDS011;11753;43.144;24.714;2023-02-15T06:11:00;46.13;;;31.13;;
23169;SDS011;11753;43.144;24.714;2023-02-15T06:12:01;37.97;;;22.80;;
23169;SDS011;11753;43.144;24.714;2023-02-15T06:13:02;40.47;;;26.35;;
23169;SDS011;11753;43.144;24.714;2023-02-15T06:14:03;34.50;;;23.13;;
23169;SDS011;11753;43.144;24.714;2023-02-15T06:15:04;40.20;;;26.08;;
23169;SDS011;11753;43.144;24.714;2023-02-15T06:16:05;37.28;;;25.75;;
23169;SDS011;11753;43.144;24.714;2023-02-15T06:17:06;47.85;;;31.85;;
23169;SDS011;11753;43.144;24.714;2023-02-15T06:18:07;64.15;;;41.40;;
23169;SDS011;11753;43.144;24.714;2023-02-15T06:19:08;57.25;;;37.10;;
23169;SDS011;11753;43.144;24.714;2023-02-15T06:20:09;43.83;;;28.65;;
23169;SDS011;11753;43.144;24.714;2023-02-15T06:21:10;42.78;;;27.75;;
23169;SDS011;11753;43.144;24.714;2023-02-15T06:22:10;36.83;;;24.25;;
23169;SDS011;11753;43.144;24.714;2023-02-15T06:23:14;35.17;;;22.17;;
23169;SDS011;11753;43.144;24.714;2023-02-15T06:24:15;37.25;;;22.90;;
23169;SDS011;11753;43.144;24.714;2023-02-15T06:25:16;33.35;;;22.25;;
23169;SDS011;11753;43.144;24.714;2023-02-15T06:26:20;33.95;;;22.88;;
23169;SDS011;11753;43.144;24.714;2023-02-15T06:27:20;46.95;;;29.65;;
23169;SDS011;11753;43.144;24.714;2023-02-15T06:28:21;44.08;;;28.00;;
23169;SDS011;11753;43.144;24.714;2023-02-15T06:29:22;41.40;;;26.13;;
23169;SDS011;11753;43.144;24.714;2023-02-15T06:30:22;37.97;;;25.88;;
23169;SDS011;11753;43.144;24.714;2023-02-15T06:31:23;43.38;;;26.60;;
23169;SDS011;11753;43.144;24.714;2023-02-15T06:32:24;39.40;;;25.02;;
23169;SDS011;11753;43.144;24.714;2023-02-15T06:33:25;39.55;;;25.52;;
23169;SDS011;11753;43.144;24.714;2023-02-15T06:34:26;41.92;;;26.75;;
23169;SDS011;11753;43.144;24.714;2023-02-15T06:35:27;43.80;;;29.92;;
23169;SDS011;11753;43.144;24.714;2023-02-15T06:36:28;46.55;;;30.42;;
23169;SDS011;11753;43.144;24.714;2023-02-15T06:37:30;35.03;;;21.40;;